sensor_id;sensor_type;location;lat;lon;timestamp;temperature;humidity
1570;DHT22;778;50.120;8.698;2022-11-15T00:02:37;10.00;99.90
1570;DHT22;778;50.120;8.698;2022-11-15T00:05:26;10.00;99.90
1570;DHT22;778;50.120;8.698;2022-11-15T00:08:13;9.90;99.90
1570;DHT22;778;50.120;8.698;2022-11-15T00:11:01;9.90;99.90
1570;DHT22;778;50.120;8.698;2022-11-15T00:13:49;9.90;99.90
1570;DHT22;778;50.120;8.698;2022-11-15T00:16:36;9.90;99.90
1570;DHT22;778;50.120;8.698;2022-11-15T00:19:23;9.80;99.90
1570;DHT22;778;50.120;8.698;2022-11-15T00:22:12;9.80;99.90
1570;DHT22;778;50.120;8.698;2022-11-15T00:24:58;9.80;99.90
1570;DHT22;778;50.120;8.698;2022-11-15T00:27:46;9.80;99.90
1570;DHT22;778;50.120;8.698;2022-11-15T00:30:32;9.80;99.90
1570;DHT22;778;50.120;8.698;2022-11-15T00:33:19;9.70;99.90
1570;DHT22;778;50.120;8.698;2022-11-15T00:36:08;9.70;99.90
1570;DHT22;778;50.120;8.698;2022-11-15T00:38:57;9.70;99.90
1570;DHT22;778;50.120;8.698;2022-11-15T00:41:43;9.70;99.90
1570;DHT22;778;50.120;8.698;2022-11-15T00:44:31;9.70;99.90
1570;DHT22;778;50.120;8.698;2022-11-15T00:47:18;9.70;99.90
1570;DHT22;778;50.120;8.698;2022-11-15T00:50:05;9.60;99.90
1570;DHT22;778;50.120;8.698;2022-11-15T00:52:58;9.60;99.90
1570;DHT22;778;50.120;8.698;2022-11-15T00:55:46;9.60;99.90
1570;DHT22;778;50.120;8.698;2022-11-15T00:58:33;9.80;99.90
1570;DHT22;778;50.120;8.698;2022-11-15T01:01:20;10.10;99.90
1570;DHT22;778;50.120;8.698;2022-11-15T01:04:08;10.20;99.90
1570;DHT22;778;50.120;8.698;2022-11-15T01:06:55;10.30;99.90
1570;DHT22;778;50.120;8.698;2022-11-15T01:09:42;10.40;99.90
1570;DHT22;778;50.120;8.698;2022-11-15T01:12:31;10.50;99.90
1570;DHT22;778;50.120;8.698;2022-11-15T01:15:18;10.60;99.90
1570;DHT22;778;50.120;8.698;2022-11-15T01:18:05;10.60;99.90
1570;DHT22;778;50.120;8.698;2022-11-15T01:20:52;10.50;99.90
1570;DHT22;778;50.120;8.698;2022-11-15T01:23:39;10.50;99.90
1570;DHT22;778;50.120;8.698;2022-11-15T01:26:26;10.50;99.90
1570;DHT22;778;50.120;8.698;2022-11-15T01:29:15;10.60;99.90
1570;DHT22;778;50.120;8.698;2022-11-15T01:32:02;10.70;99.90
1570;DHT22;778;50.120;8.698;2022-11-15T01:34:50;10.70;99.90
1570;DHT22;778;50.120;8.698;2022-11-15T01:37:37;10.50;99.90
1570;DHT22;778;50.120;8.698;2022-11-15T01:40:24;10.30;99.90
1570;DHT22;778;50.120;8.698;2022-11-15T01:43:22;10.20;99.90
1570;DHT22;778;50.120;8.698;2022-11-15T01:46:22;10.10;99.90
1570;DHT22;778;50.120;8.698;2022-11-15T01:49:17;10.00;99.90
1570;DHT22;778;50.120;8.698;2022-11-15T01:52:08;10.00;99.90
1570;DHT22;778;50.120;8.698;2022-11-15T01:55:03;9.90;99.90
1570;DHT22;778;50.120;8.698;2022-11-15T01:57:56;9.90;99.90
1570;DHT22;778;50.120;8.698;2022-11-15T02:00:45;9.90;99.90
1570;DHT22;778;50.120;8.698;2022-11-15T02:03:38;9.90;99.90
1570;DHT22;778;50.120;8.698;2022-11-15T02:06:29;9.90;99.90
1570;DHT22;778;50.120;8.698;2022-11-15T02:09:17;10.00;99.90
1570;DHT22;778;50.120;8.698;2022-11-15T02:12:05;10.00;99.90
1570;DHT22;778;50.120;8.698;2022-11-15T02:14:54;10.00;99.90
1570;DHT22;778;50.120;8.698;2022-11-15T02:18:02;10.00;99.90
1570;DHT22;778;50.120;8.698;2022-11-15T02:21:21;10.00;99.90
1570;DHT22;778;50.120;8.698;2022-11-15T02:24:51;10.00;99.90
1570;DHT22;778;50.120;8.698;2022-11-15T02:31:32;10.10;99.90
1570;DHT22;778;50.120;8.698;2022-11-15T02:34:28;10.10;99.90
1570;DHT22;778;50.120;8.698;2022-11-15T02:37:27;10.10;99.90
1570;DHT22;778;50.120;8.698;2022-11-15T02:40:26;10.10;99.90
1570;DHT22;778;50.120;8.698;2022-11-15T02:43:22;10.10;99.90
1570;DHT22;778;50.120;8.698;2022-11-15T02:46:35;10.10;99.90
1570;DHT22;778;50.120;8.698;2022-11-15T02:49:46;10.10;99.90
1570;DHT22;778;50.120;8.698;2022-11-15T02:52:34;10.10;99.90
1570;DHT22;778;50.120;8.698;2022-11-15T02:55:26;10.10;99.90
1570;DHT22;778;50.120;8.698;2022-11-15T03:01:45;10.10;99.90
1570;DHT22;778;50.120;8.698;2022-11-15T03:04:44;10.10;99.90
1570;DHT22;778;50.120;8.698;2022-11-15T03:07:38;10.10;99.90
1570;DHT22;778;50.120;8.698;2022-11-15T03:10:36;10.10;99.90
1570;DHT22;778;50.120;8.698;2022-11-15T03:13:35;10.00;99.90
1570;DHT22;778;50.120;8.698;2022-11-15T03:16:27;9.90;99.90
1570;DHT22;778;50.120;8.698;2022-11-15T03:19:29;9.90;99.90
1570;DHT22;778;50.120;8.698;2022-11-15T03:22:22;9.90;99.90
1570;DHT22;778;50.120;8.698;2022-11-15T03:25:19;9.90;99.90
1570;DHT22;778;50.120;8.698;2022-11-15T03:28:09;9.90;99.90
1570;DHT22;778;50.120;8.698;2022-11-15T03:31:01;9.80;99.90
1570;DHT22;778;50.120;8.698;2022-11-15T03:34:19;9.80;99.90
1570;DHT22;778;50.120;8.698;2022-11-15T03:37:14;9.80;99.90
1570;DHT22;778;50.120;8.698;2022-11-15T03:40:03;9.80;99.90
1570;DHT22;778;50.120;8.698;2022-11-15T03:42:59;9.80;99.90
1570;DHT22;778;50.120;8.698;2022-11-15T03:45:53;9.70;99.90
1570;DHT22;778;50.120;8.698;2022-11-15T03:48:46;9.70;99.90
1570;DHT22;778;50.120;8.698;2022-11-15T03:51:38;9.70;99.90
1570;DHT22;778;50.120;8.698;2022-11-15T03:54:26;9.70;99.90
1570;DHT22;778;50.120;8.698;2022-11-15T03:57:13;9.60;99.90
1570;DHT22;778;50.120;8.698;2022-11-15T04:00:00;9.60;99.90
1570;DHT22;778;50.120;8.698;2022-11-15T04:02:47;9.60;99.90
1570;DHT22;778;50.120;8.698;2022-11-15T04:05:34;9.60;99.90
1570;DHT22;778;50.120;8.698;2022-11-15T04:08:22;9.60;99.90
1570;DHT22;778;50.120;8.698;2022-11-15T04:11:09;9.60;99.90
1570;DHT22;778;50.120;8.698;2022-11-15T04:13:56;9.60;99.90
1570;DHT22;778;50.120;8.698;2022-11-15T04:16:43;9.70;99.90
1570;DHT22;778;50.120;8.698;2022-11-15T04:19:30;9.70;99.90
1570;DHT22;778;50.120;8.698;2022-11-15T04:22:35;9.70;99.90
1570;DHT22;778;50.120;8.698;2022-11-15T04:25:42;9.70;99.90
1570;DHT22;778;50.120;8.698;2022-11-15T04:28:29;9.80;99.90
1570;DHT22;778;50.120;8.698;2022-11-15T04:31:24;9.80;99.90
1570;DHT22;778;50.120;8.698;2022-11-15T04:34:11;9.80;99.90
1570;DHT22;778;50.120;8.698;2022-11-15T04:36:58;9.90;99.90
1570;DHT22;778;50.120;8.698;2022-11-15T04:40:01;9.90;99.90
1570;DHT22;778;50.120;8.698;2022-11-15T04:42:49;9.90;99.90
1570;DHT22;778;50.120;8.698;2022-11-15T04:45:36;9.90;99.90
1570;DHT22;778;50.120;8.698;2022-11-15T04:48:24;9.90;99.90
1570;DHT22;778;50.120;8.698;2022-11-15T04:51:11;9.90;99.90
1570;DHT22;778;50.120;8.698;2022-11-15T04:53:58;9.90;99.90
1570;DHT22;778;50.120;8.698;2022-11-15T04:56:45;10.00;99.90
1570;DHT22;778;50.120;8.698;2022-11-15T04:59:32;10.00;99.90
1570;DHT22;778;50.120;8.698;2022-11-15T05:02:19;10.00;99.90
1570;DHT22;778;50.120;8.698;2022-11-15T05:05:13;10.00;99.90
1570;DHT22;778;50.120;8.698;2022-11-15T05:07:59;10.00;99.90
1570;DHT22;778;50.120;8.698;2022-11-15T05:10:47;9.90;99.90
1570;DHT22;778;50.120;8.698;2022-11-15T05:13:34;9.90;99.90
1570;DHT22;778;50.120;8.698;2022-11-15T05:16:21;10.00;99.90
1570;DHT22;778;50.120;8.698;2022-11-15T05:19:08;10.00;99.90
1570;DHT22;778;50.120;8.698;2022-11-15T05:21:56;9.90;99.90
1570;DHT22;778;50.120;8.698;2022-11-15T05:24:43;10.00;99.90
1570;DHT22;778;50.120;8.698;2022-11-15T05:27:31;9.90;99.90
1570;DHT22;778;50.120;8.698;2022-11-15T05:30:18;9.90;99.90
1570;DHT22;778;50.120;8.698;2022-11-15T05:33:05;9.90;99.90
1570;DHT22;778;50.120;8.698;2022-11-15T05:35:56;9.90;99.90
1570;DHT22;778;50.120;8.698;2022-11-15T05:38:48;9.90;99.90
1570;DHT22;778;50.120;8.698;2022-11-15T05:41:38;9.90;99.90
1570;DHT22;778;50.120;8.698;2022-11-15T05:44:27;9.90;99.90
1570;DHT22;778;50.120;8.698;2022-11-15T05:47:18;9.80;99.90
1570;DHT22;778;50.120;8.698;2022-11-15T05:50:11;9.80;99.90
1570;DHT22;778;50.120;8.698;2022-11-15T05:52:59;9.70;99.90
1570;DHT22;778;50.120;8.698;2022-11-15T05:55:51;9.70;99.90
1570;DHT22;778;50.120;8.698;2022-11-15T05:58:38;9.70;99.90
1570;DHT22;778;50.120;8.698;2022-11-15T06:01:25;9.70;99.90
1570;DHT22;778;50.120;8.698;2022-11-15T06:04:13;9.70;99.90
1570;DHT22;778;50.120;8.698;2022-11-15T06:07:00;9.70;99.90
1570;DHT22;778;50.120;8.698;2022-11-15T06:09:47;9.70;99.90
1570;DHT22;778;50.120;8.698;2022-11-15T06:12:36;9.80;99.90
1570;DHT22;778;50.120;8.698;2022-11-15T06:15:22;9.80;99.90
1570;DHT22;778;50.120;8.698;2022-11-15T06:18:10;9.80;99.90
1570;DHT22;778;50.120;8.698;2022-11-15T06:20:59;9.80;99.90
1570;DHT22;778;50.120;8.698;2022-11-15T06:23:46;9.80;99.90
1570;DHT22;778;50.120;8.698;2022-11-15T06:26:33;9.80;99.90
1570;DHT22;778;50.120;8.698;2022-11-15T06:29:21;9.90;99.90
1570;DHT22;778;50.120;8.698;2022-11-15T06:32:08;9.90;99.90
1570;DHT22;778;50.120;8.698;2022-11-15T06:34:55;9.90;99.90
1570;DHT22;778;50.120;8.698;2022-11-15T06:37:43;10.00;99.90
1570;DHT22;778;50.120;8.698;2022-11-15T06:40:29;10.00;99.90
1570;DHT22;778;50.120;8.698;2022-11-15T06:43:17;10.10;99.90
1570;DHT22;778;50.120;8.698;2022-11-15T06:46:05;10.10;99.90
1570;DHT22;778;50.120;8.698;2022-11-15T06:48:53;10.10;99.90
1570;DHT22;778;50.120;8.698;2022-11-15T06:51:40;10.20;99.90
1570;DHT22;778;50.120;8.698;2022-11-15T06:54:27;10.20;99.90
1570;DHT22;778;50.120;8.698;2022-11-15T06:57:14;10.20;99.90
1570;DHT22;778;50.120;8.698;2022-11-15T07:00:02;10.20;99.90
1570;DHT22;778;50.120;8.698;2022-11-15T07:02:51;10.20;99.90
1570;DHT22;778;50.120;8.698;2022-11-15T07:05:38;10.20;99.90
1570;DHT22;778;50.120;8.698;2022-11-15T07:08:27;10.30;99.90
1570;DHT22;778;50.120;8.698;2022-11-15T07:11:15;10.30;99.90
1570;DHT22;778;50.120;8.698;2022-11-15T07:14:01;10.30;99.90
1570;DHT22;778;50.120;8.698;2022-11-15T07:16:48;10.30;99.90
1570;DHT22;778;50.120;8.698;2022-11-15T07:19:37;10.30;99.90
1570;DHT22;778;50.120;8.698;2022-11-15T07:22:24;10.40;99.90
1570;DHT22;778;50.120;8.698;2022-11-15T07:25:11;10.40;99.90
1570;DHT22;778;50.120;8.698;2022-11-15T07:27:59;10.40;99.90
1570;DHT22;778;50.120;8.698;2022-11-15T07:30:46;10.40;99.90
1570;DHT22;778;50.120;8.698;2022-11-15T07:33:33;10.50;99.90
1570;DHT22;778;50.120;8.698;2022-11-15T07:36:22;10.50;99.90
1570;DHT22;778;50.120;8.698;2022-11-15T07:39:09;10.50;99.90
1570;DHT22;778;50.120;8.698;2022-11-15T07:41:57;10.60;99.90
1570;DHT22;778;50.120;8.698;2022-11-15T07:44:58;10.60;99.90
1570;DHT22;778;50.120;8.698;2022-11-15T07:47:45;10.70;99.90
1570;DHT22;778;50.120;8.698;2022-11-15T07:50:32;10.70;99.90
1570;DHT22;778;50.120;8.698;2022-11-15T07:53:21;10.70;99.90
1570;DHT22;778;50.120;8.698;2022-11-15T07:56:08;10.70;99.90
1570;DHT22;778;50.120;8.698;2022-11-15T07:58:55;10.70;99.90
1570;DHT22;778;50.120;8.698;2022-11-15T08:01:42;10.70;99.90
1570;DHT22;778;50.120;8.698;2022-11-15T08:04:29;10.70;99.90
1570;DHT22;778;50.120;8.698;2022-11-15T08:07:16;10.70;99.90
1570;DHT22;778;50.120;8.698;2022-11-15T08:10:06;10.70;99.90
1570;DHT22;778;50.120;8.698;2022-11-15T08:12:58;10.80;99.90
1570;DHT22;778;50.120;8.698;2022-11-15T08:15:48;10.80;99.90
1570;DHT22;778;50.120;8.698;2022-11-15T08:18:42;10.80;99.90
1570;DHT22;778;50.120;8.698;2022-11-15T08:21:29;10.90;99.90
1570;DHT22;778;50.120;8.698;2022-11-15T08:24:16;11.00;99.90
1570;DHT22;778;50.120;8.698;2022-11-15T08:27:04;11.00;99.90
1570;DHT22;778;50.120;8.698;2022-11-15T08:30:00;11.00;99.90
1570;DHT22;778;50.120;8.698;2022-11-15T08:32:48;11.10;99.90
1570;DHT22;778;50.120;8.698;2022-11-15T08:35:35;11.10;99.90
1570;DHT22;778;50.120;8.698;2022-11-15T08:38:22;11.20;99.90
1570;DHT22;778;50.120;8.698;2022-11-15T08:41:19;11.30;99.90
1570;DHT22;778;50.120;8.698;2022-11-15T08:44:13;11.40;99.90
1570;DHT22;778;50.120;8.698;2022-11-15T08:47:00;11.50;99.90
1570;DHT22;778;50.120;8.698;2022-11-15T08:49:47;11.50;99.90
1570;DHT22;778;50.120;8.698;2022-11-15T08:52:34;11.60;99.90
1570;DHT22;778;50.120;8.698;2022-11-15T08:55:21;11.50;99.90
1570;DHT22;778;50.120;8.698;2022-11-15T08:58:09;11.60;99.90
1570;DHT22;778;50.120;8.698;2022-11-15T09:00:58;11.60;99.90
1570;DHT22;778;50.120;8.698;2022-11-15T09:03:45;11.60;99.90
1570;DHT22;778;50.120;8.698;2022-11-15T09:06:32;11.60;99.90
1570;DHT22;778;50.120;8.698;2022-11-15T09:09:23;11.80;99.90
1570;DHT22;778;50.120;8.698;2022-11-15T09:12:10;11.90;99.90
1570;DHT22;778;50.120;8.698;2022-11-15T09:14:57;11.90;99.90
1570;DHT22;778;50.120;8.698;2022-11-15T09:17:45;12.00;99.90
1570;DHT22;778;50.120;8.698;2022-11-15T09:20:32;12.00;99.90
1570;DHT22;778;50.120;8.698;2022-11-15T09:23:19;12.10;99.90
1570;DHT22;778;50.120;8.698;2022-11-15T09:26:06;12.20;99.90
1570;DHT22;778;50.120;8.698;2022-11-15T09:28:53;12.20;99.90
1570;DHT22;778;50.120;8.698;2022-11-15T09:31:40;12.20;99.90
1570;DHT22;778;50.120;8.698;2022-11-15T09:34:29;12.30;99.90
1570;DHT22;778;50.120;8.698;2022-11-15T09:37:16;12.40;99.90
1570;DHT22;778;50.120;8.698;2022-11-15T09:40:03;12.50;99.90
1570;DHT22;778;50.120;8.698;2022-11-15T09:43:05;12.50;99.90
1570;DHT22;778;50.120;8.698;2022-11-15T09:46:13;12.50;99.90
1570;DHT22;778;50.120;8.698;2022-11-15T09:49:02;12.50;99.90
1570;DHT22;778;50.120;8.698;2022-11-15T09:51:34;12.60;99.90
1570;DHT22;778;50.120;8.698;2022-11-15T09:54:09;12.50;99.90
1570;DHT22;778;50.120;8.698;2022-11-15T09:57:04;12.50;99.90
1570;DHT22;778;50.120;8.698;2022-11-15T10:00:09;12.60;99.90
1570;DHT22;778;50.120;8.698;2022-11-15T10:03:09;12.70;99.90
1570;DHT22;778;50.120;8.698;2022-11-15T10:05:41;13.00;99.90
1570;DHT22;778;50.120;8.698;2022-11-15T10:08:24;13.40;99.90
1570;DHT22;778;50.120;8.698;2022-11-15T10:10:58;13.60;99.90
1570;DHT22;778;50.120;8.698;2022-11-15T10:13:49;13.70;99.90
1570;DHT22;778;50.120;8.698;2022-11-15T10:16:46;14.10;99.90
1570;DHT22;778;50.120;8.698;2022-11-15T10:19:46;14.30;99.90
1570;DHT22;778;50.120;8.698;2022-11-15T10:22:39;14.50;99.90
1570;DHT22;778;50.120;8.698;2022-11-15T10:25:31;14.60;99.90
1570;DHT22;778;50.120;8.698;2022-11-15T10:28:06;14.60;99.90
1570;DHT22;778;50.120;8.698;2022-11-15T10:30:41;14.50;99.90
1570;DHT22;778;50.120;8.698;2022-11-15T10:33:23;14.50;99.90
1570;DHT22;778;50.120;8.698;2022-11-15T10:36:17;14.40;99.90
1570;DHT22;778;50.120;8.698;2022-11-15T10:38:54;14.20;99.90
1570;DHT22;778;50.120;8.698;2022-11-15T10:41:32;14.10;99.90
1570;DHT22;778;50.120;8.698;2022-11-15T10:44:19;14.00;99.90
1570;DHT22;778;50.120;8.698;2022-11-15T10:47:06;14.00;99.90
1570;DHT22;778;50.120;8.698;2022-11-15T10:49:58;14.00;99.90
1570;DHT22;778;50.120;8.698;2022-11-15T10:52:36;14.00;99.90
1570;DHT22;778;50.120;8.698;2022-11-15T10:55:21;14.00;99.90
1570;DHT22;778;50.120;8.698;2022-11-15T10:58:01;14.10;99.90
1570;DHT22;778;50.120;8.698;2022-11-15T11:00:36;14.10;99.90
1570;DHT22;778;50.120;8.698;2022-11-15T11:03:27;14.20;99.90
1570;DHT22;778;50.120;8.698;2022-11-15T11:06:08;14.10;99.90
1570;DHT22;778;50.120;8.698;2022-11-15T11:08:39;14.10;99.90
1570;DHT22;778;50.120;8.698;2022-11-15T11:11:08;14.00;99.90
1570;DHT22;778;50.120;8.698;2022-11-15T11:13:39;13.90;99.90
1570;DHT22;778;50.120;8.698;2022-11-15T11:16:41;13.90;99.90
1570;DHT22;778;50.120;8.698;2022-11-15T11:19:41;13.80;99.90
1570;DHT22;778;50.120;8.698;2022-11-15T11:22:23;13.70;99.90
1570;DHT22;778;50.120;8.698;2022-11-15T11:25:03;13.80;99.90
1570;DHT22;778;50.120;8.698;2022-11-15T11:27:42;13.90;99.90
1570;DHT22;778;50.120;8.698;2022-11-15T11:30:18;14.10;99.90
1570;DHT22;778;50.120;8.698;2022-11-15T11:33:00;14.20;99.90
1570;DHT22;778;50.120;8.698;2022-11-15T11:35:40;14.30;99.90
1570;DHT22;778;50.120;8.698;2022-11-15T11:38:34;14.40;99.90
1570;DHT22;778;50.120;8.698;2022-11-15T11:41:15;14.40;99.90
1570;DHT22;778;50.120;8.698;2022-11-15T11:43:55;14.40;99.90
1570;DHT22;778;50.120;8.698;2022-11-15T11:46:51;14.40;99.90
1570;DHT22;778;50.120;8.698;2022-11-15T11:49:29;14.50;99.90
1570;DHT22;778;50.120;8.698;2022-11-15T11:52:07;14.40;99.90
1570;DHT22;778;50.120;8.698;2022-11-15T11:54:47;14.40;99.90
1570;DHT22;778;50.120;8.698;2022-11-15T11:57:32;14.40;99.90
1570;DHT22;778;50.120;8.698;2022-11-15T12:00:04;14.40;99.90
1570;DHT22;778;50.120;8.698;2022-11-15T12:02:48;14.40;99.90
1570;DHT22;778;50.120;8.698;2022-11-15T12:05:26;14.40;99.90
1570;DHT22;778;50.120;8.698;2022-11-15T12:08:22;14.30;99.90
1570;DHT22;778;50.120;8.698;2022-11-15T12:11:04;14.40;99.90
1570;DHT22;778;50.120;8.698;2022-11-15T12:13:36;14.40;99.90
1570;DHT22;778;50.120;8.698;2022-11-15T12:16:12;14.40;99.90
1570;DHT22;778;50.120;8.698;2022-11-15T12:18:47;14.40;99.90
1570;DHT22;778;50.120;8.698;2022-11-15T12:21:24;14.40;99.90
1570;DHT22;778;50.120;8.698;2022-11-15T12:24:02;14.50;99.90
1570;DHT22;778;50.120;8.698;2022-11-15T12:26:36;14.50;99.90
1570;DHT22;778;50.120;8.698;2022-11-15T12:29:11;14.40;99.90
1570;DHT22;778;50.120;8.698;2022-11-15T12:31:48;14.50;99.90
1570;DHT22;778;50.120;8.698;2022-11-15T12:34:40;14.50;99.90
1570;DHT22;778;50.120;8.698;2022-11-15T12:40:33;14.50;99.90
1570;DHT22;778;50.120;8.698;2022-11-15T12:46:08;14.50;99.90
1570;DHT22;778;50.120;8.698;2022-11-15T12:48:49;14.40;99.90
1570;DHT22;778;50.120;8.698;2022-11-15T12:54:59;14.40;99.90
1570;DHT22;778;50.120;8.698;2022-11-15T12:57:41;14.40;99.90
1570;DHT22;778;50.120;8.698;2022-11-15T13:00:43;14.40;99.90
1570;DHT22;778;50.120;8.698;2022-11-15T13:03:28;14.40;99.90
1570;DHT22;778;50.120;8.698;2022-11-15T13:06:06;14.30;99.90
1570;DHT22;778;50.120;8.698;2022-11-15T13:08:43;14.30;99.90
1570;DHT22;778;50.120;8.698;2022-11-15T13:11:49;14.30;99.90
1570;DHT22;778;50.120;8.698;2022-11-15T13:14:48;14.30;99.90
1570;DHT22;778;50.120;8.698;2022-11-15T13:17:30;14.30;99.90
1570;DHT22;778;50.120;8.698;2022-11-15T13:20:29;14.30;99.90
1570;DHT22;778;50.120;8.698;2022-11-15T13:23:08;14.30;99.90
1570;DHT22;778;50.120;8.698;2022-11-15T13:26:00;14.30;99.90
1570;DHT22;778;50.120;8.698;2022-11-15T13:28:39;14.30;99.90
1570;DHT22;778;50.120;8.698;2022-11-15T13:31:29;14.30;99.90
1570;DHT22;778;50.120;8.698;2022-11-15T13:34:12;14.40;99.90
1570;DHT22;778;50.120;8.698;2022-11-15T13:37:08;14.30;99.90
1570;DHT22;778;50.120;8.698;2022-11-15T13:39:45;14.30;99.90
1570;DHT22;778;50.120;8.698;2022-11-15T13:42:31;14.30;99.90
1570;DHT22;778;50.120;8.698;2022-11-15T13:45:00;14.30;99.90
1570;DHT22;778;50.120;8.698;2022-11-15T13:47:37;14.30;99.90
1570;DHT22;778;50.120;8.698;2022-11-15T13:50:10;14.20;99.90
1570;DHT22;778;50.120;8.698;2022-11-15T13:52:41;14.20;99.90
1570;DHT22;778;50.120;8.698;2022-11-15T13:55:14;14.20;99.90
1570;DHT22;778;50.120;8.698;2022-11-15T13:57:47;14.20;99.90
1570;DHT22;778;50.120;8.698;2022-11-15T14:00:41;14.20;99.90
1570;DHT22;778;50.120;8.698;2022-11-15T14:03:17;14.20;99.90
1570;DHT22;778;50.120;8.698;2022-11-15T14:06:03;14.10;99.90
1570;DHT22;778;50.120;8.698;2022-11-15T14:08:35;14.10;99.90
1570;DHT22;778;50.120;8.698;2022-11-15T14:11:15;14.10;99.90
1570;DHT22;778;50.120;8.698;2022-11-15T14:16:51;14.10;99.90
1570;DHT22;778;50.120;8.698;2022-11-15T14:19:38;14.00;99.90
1570;DHT22;778;50.120;8.698;2022-11-15T14:22:11;14.00;99.90
1570;DHT22;778;50.120;8.698;2022-11-15T14:24:46;14.10;99.90
1570;DHT22;778;50.120;8.698;2022-11-15T14:27:31;14.00;99.90
1570;DHT22;778;50.120;8.698;2022-11-15T14:30:02;14.00;99.90
1570;DHT22;778;50.120;8.698;2022-11-15T14:32:44;14.00;99.90
1570;DHT22;778;50.120;8.698;2022-11-15T14:35:19;14.00;99.90
1570;DHT22;778;50.120;8.698;2022-11-15T14:37:49;14.00;99.90
1570;DHT22;778;50.120;8.698;2022-11-15T14:40:20;14.00;99.90
1570;DHT22;778;50.120;8.698;2022-11-15T14:42:49;14.00;99.90
1570;DHT22;778;50.120;8.698;2022-11-15T14:45:22;14.00;99.90
1570;DHT22;778;50.120;8.698;2022-11-15T14:47:50;14.00;99.90
1570;DHT22;778;50.120;8.698;2022-11-15T14:50:20;14.00;99.90
1570;DHT22;778;50.120;8.698;2022-11-15T14:52:49;14.00;99.90
1570;DHT22;778;50.120;8.698;2022-11-15T14:55:22;14.00;99.90
1570;DHT22;778;50.120;8.698;2022-11-15T14:57:52;14.00;99.90
1570;DHT22;778;50.120;8.698;2022-11-15T15:00:30;13.90;99.90
1570;DHT22;778;50.120;8.698;2022-11-15T15:03:11;13.90;99.90
1570;DHT22;778;50.120;8.698;2022-11-15T15:05:41;13.90;99.90
1570;DHT22;778;50.120;8.698;2022-11-15T15:08:10;13.80;99.90
1570;DHT22;778;50.120;8.698;2022-11-15T15:10:41;13.80;99.90
1570;DHT22;778;50.120;8.698;2022-11-15T15:13:17;13.80;99.90
1570;DHT22;778;50.120;8.698;2022-11-15T15:15:48;13.80;99.90
1570;DHT22;778;50.120;8.698;2022-11-15T15:18:18;13.70;99.90
1570;DHT22;778;50.120;8.698;2022-11-15T15:20:53;13.70;99.90
1570;DHT22;778;50.120;8.698;2022-11-15T15:23:23;13.60;99.90
1570;DHT22;778;50.120;8.698;2022-11-15T15:25:53;13.50;99.90
1570;DHT22;778;50.120;8.698;2022-11-15T15:28:22;13.50;99.90
1570;DHT22;778;50.120;8.698;2022-11-15T15:30:57;13.50;99.90
1570;DHT22;778;50.120;8.698;2022-11-15T15:33:25;13.50;99.90
1570;DHT22;778;50.120;8.698;2022-11-15T15:35:54;13.50;99.90
1570;DHT22;778;50.120;8.698;2022-11-15T15:38:22;13.50;99.90
1570;DHT22;778;50.120;8.698;2022-11-15T15:40:50;13.50;99.90
1570;DHT22;778;50.120;8.698;2022-11-15T15:43:19;13.50;99.90
1570;DHT22;778;50.120;8.698;2022-11-15T15:45:47;13.50;99.90
1570;DHT22;778;50.120;8.698;2022-11-15T15:48:17;13.40;99.90
1570;DHT22;778;50.120;8.698;2022-11-15T15:50:45;13.40;99.90
1570;DHT22;778;50.120;8.698;2022-11-15T15:53:14;13.40;99.90
1570;DHT22;778;50.120;8.698;2022-11-15T15:55:42;13.40;99.90
1570;DHT22;778;50.120;8.698;2022-11-15T15:58:11;13.40;99.90
1570;DHT22;778;50.120;8.698;2022-11-15T16:00:39;13.40;99.90
1570;DHT22;778;50.120;8.698;2022-11-15T16:03:07;13.30;99.90
1570;DHT22;778;50.120;8.698;2022-11-15T16:05:40;13.40;99.90
1570;DHT22;778;50.120;8.698;2022-11-15T16:08:16;13.40;99.90
1570;DHT22;778;50.120;8.698;2022-11-15T16:10:46;13.40;99.90
1570;DHT22;778;50.120;8.698;2022-11-15T16:13:15;13.40;99.90
1570;DHT22;778;50.120;8.698;2022-11-15T16:15:44;13.40;99.90
1570;DHT22;778;50.120;8.698;2022-11-15T16:18:17;13.40;99.90
1570;DHT22;778;50.120;8.698;2022-11-15T16:20:48;13.40;99.90
1570;DHT22;778;50.120;8.698;2022-11-15T16:23:19;13.40;99.90
1570;DHT22;778;50.120;8.698;2022-11-15T16:25:51;13.40;99.90
1570;DHT22;778;50.120;8.698;2022-11-15T16:28:23;13.40;99.90
1570;DHT22;778;50.120;8.698;2022-11-15T16:31:00;13.40;99.90
1570;DHT22;778;50.120;8.698;2022-11-15T16:36:21;13.30;99.90
1570;DHT22;778;50.120;8.698;2022-11-15T16:38:57;13.30;99.90
1570;DHT22;778;50.120;8.698;2022-11-15T16:41:26;13.30;99.90
1570;DHT22;778;50.120;8.698;2022-11-15T16:43:54;13.30;99.90
1570;DHT22;778;50.120;8.698;2022-11-15T16:46:24;13.30;99.90
1570;DHT22;778;50.120;8.698;2022-11-15T16:48:54;13.30;99.90
1570;DHT22;778;50.120;8.698;2022-11-15T16:51:24;13.30;99.90
1570;DHT22;778;50.120;8.698;2022-11-15T16:53:52;13.30;99.90
1570;DHT22;778;50.120;8.698;2022-11-15T16:56:24;13.30;99.90
1570;DHT22;778;50.120;8.698;2022-11-15T16:58:54;13.30;99.90
1570;DHT22;778;50.120;8.698;2022-11-15T17:01:26;13.30;99.90
1570;DHT22;778;50.120;8.698;2022-11-15T17:03:55;13.30;99.90
1570;DHT22;778;50.120;8.698;2022-11-15T17:06:26;13.20;99.90
1570;DHT22;778;50.120;8.698;2022-11-15T17:08:54;13.20;99.90
1570;DHT22;778;50.120;8.698;2022-11-15T17:11:23;13.20;99.90
1570;DHT22;778;50.120;8.698;2022-11-15T17:13:56;13.20;99.90
1570;DHT22;778;50.120;8.698;2022-11-15T17:16:25;13.20;99.90
1570;DHT22;778;50.120;8.698;2022-11-15T17:18:54;13.20;99.90
1570;DHT22;778;50.120;8.698;2022-11-15T17:21:23;13.20;99.90
1570;DHT22;778;50.120;8.698;2022-11-15T17:23:59;13.10;99.90
1570;DHT22;778;50.120;8.698;2022-11-15T17:26:28;13.20;99.90
1570;DHT22;778;50.120;8.698;2022-11-15T17:29:02;13.10;99.90
1570;DHT22;778;50.120;8.698;2022-11-15T17:31:34;13.10;99.90
1570;DHT22;778;50.120;8.698;2022-11-15T17:34:04;13.10;99.90
1570;DHT22;778;50.120;8.698;2022-11-15T17:36:35;13.10;99.90
1570;DHT22;778;50.120;8.698;2022-11-15T17:39:04;13.10;99.90
1570;DHT22;778;50.120;8.698;2022-11-15T17:41:32;13.00;99.90
1570;DHT22;778;50.120;8.698;2022-11-15T17:44:01;13.10;99.90
1570;DHT22;778;50.120;8.698;2022-11-15T17:46:30;13.00;99.90
1570;DHT22;778;50.120;8.698;2022-11-15T17:49:00;13.10;99.90
1570;DHT22;778;50.120;8.698;2022-11-15T17:51:28;13.00;99.90
1570;DHT22;778;50.120;8.698;2022-11-15T17:53:58;13.00;99.90
1570;DHT22;778;50.120;8.698;2022-11-15T17:56:28;13.00;99.90
1570;DHT22;778;50.120;8.698;2022-11-15T17:58:58;13.00;99.90
1570;DHT22;778;50.120;8.698;2022-11-15T18:01:29;13.10;99.90
1570;DHT22;778;50.120;8.698;2022-11-15T18:03:59;13.00;99.90
1570;DHT22;778;50.120;8.698;2022-11-15T18:06:29;13.00;99.90
1570;DHT22;778;50.120;8.698;2022-11-15T18:09:01;13.00;99.90
1570;DHT22;778;50.120;8.698;2022-11-15T18:11:32;13.00;99.90
1570;DHT22;778;50.120;8.698;2022-11-15T18:14:06;13.00;99.90
1570;DHT22;778;50.120;8.698;2022-11-15T18:16:37;13.00;99.90
1570;DHT22;778;50.120;8.698;2022-11-15T18:19:06;13.00;99.90
1570;DHT22;778;50.120;8.698;2022-11-15T18:21:39;13.00;99.90
1570;DHT22;778;50.120;8.698;2022-11-15T18:24:28;13.00;99.90
1570;DHT22;778;50.120;8.698;2022-11-15T18:27:00;13.00;99.90
1570;DHT22;778;50.120;8.698;2022-11-15T18:29:29;13.00;99.90
1570;DHT22;778;50.120;8.698;2022-11-15T18:31:59;13.00;99.90
1570;DHT22;778;50.120;8.698;2022-11-15T18:34:31;13.00;99.90